sensor_id;sensor_type;location;lat;lon;timestamp;temperature;humidity
19363;DHT22;9817;50.80926400;5.16316200;2023-03-23T00:02:30;13.90;99.90
19363;DHT22;9817;50.80926400;5.16316200;2023-03-23T00:05:01;13.80;99.90
19363;DHT22;9817;50.80926400;5.16316200;2023-03-23T00:07:28;13.80;99.90
19363;DHT22;9817;50.80926400;5.16316200;2023-03-23T00:09:55;13.80;99.90
19363;DHT22;9817;50.80926400;5.16316200;2023-03-23T00:12:26;13.90;99.90
19363;DHT22;9817;50.80926400;5.16316200;2023-03-23T00:15:06;13.80;99.90
19363;DHT22;9817;50.80926400;5.16316200;2023-03-23T00:17:34;13.70;99.90
19363;DHT22;9817;50.80926400;5.16316200;2023-03-23T00:20:00;13.70;99.90
19363;DHT22;9817;50.80926400;5.16316200;2023-03-23T00:22:27;13.70;99.90
19363;DHT22;9817;50.80926400;5.16316200;2023-03-23T00:24:53;13.50;99.90
19363;DHT22;9817;50.80926400;5.16316200;2023-03-23T00:27:20;13.70;99.90
19363;DHT22;9817;50.80926400;5.16316200;2023-03-23T00:29:48;13.80;99.90
19363;DHT22;9817;50.80926400;5.16316200;2023-03-23T00:32:18;13.90;99.90
19363;DHT22;9817;50.80926400;5.16316200;2023-03-23T00:34:46;13.80;99.90
19363;DHT22;9817;50.80926400;5.16316200;2023-03-23T00:37:14;13.90;99.90
19363;DHT22;9817;50.80926400;5.16316200;2023-03-23T00:39:42;13.90;99.90
19363;DHT22;9817;50.80926400;5.16316200;2023-03-23T00:42:09;13.90;99.90
19363;DHT22;9817;50.80926400;5.16316200;2023-03-23T00:44:36;13.90;99.90
19363;DHT22;9817;50.80926400;5.16316200;2023-03-23T00:47:02;14.00;99.90
19363;DHT22;9817;50.80926400;5.16316200;2023-03-23T00:49:28;13.80;99.90
19363;DHT22;9817;50.80926400;5.16316200;2023-03-23T00:51:56;13.80;99.90
19363;DHT22;9817;50.80926400;5.16316200;2023-03-23T00:54:23;13.80;99.90
19363;DHT22;9817;50.80926400;5.16316200;2023-03-23T00:56:49;13.70;99.90
19363;DHT22;9817;50.80926400;5.16316200;2023-03-23T00:59:15;13.70;99.90
19363;DHT22;9817;50.80926400;5.16316200;2023-03-23T01:01:41;13.80;99.90
19363;DHT22;9817;50.80926400;5.16316200;2023-03-23T01:04:07;13.80;99.90
19363;DHT22;9817;50.80926400;5.16316200;2023-03-23T01:06:35;13.80;99.90
19363;DHT22;9817;50.80926400;5.16316200;2023-03-23T01:09:04;13.80;99.90
19363;DHT22;9817;50.80926400;5.16316200;2023-03-23T01:11:31;13.80;99.90
19363;DHT22;9817;50.80926400;5.16316200;2023-03-23T01:13:57;13.70;99.90
19363;DHT22;9817;50.80926400;5.16316200;2023-03-23T01:16:22;13.60;99.90
19363;DHT22;9817;50.80926400;5.16316200;2023-03-23T01:18:48;13.50;99.90
19363;DHT22;9817;50.80926400;5.16316200;2023-03-23T01:21:15;13.70;99.90
19363;DHT22;9817;50.80926400;5.16316200;2023-03-23T01:23:42;13.70;99.90
19363;DHT22;9817;50.80926400;5.16316200;2023-03-23T01:26:10;13.60;99.90
19363;DHT22;9817;50.80926400;5.16316200;2023-03-23T01:28:37;13.60;99.90
19363;DHT22;9817;50.80926400;5.16316200;2023-03-23T01:31:05;13.60;99.90
19363;DHT22;9817;50.80926400;5.16316200;2023-03-23T01:33:31;13.60;99.90
19363;DHT22;9817;50.80926400;5.16316200;2023-03-23T01:35:58;13.70;99.90
19363;DHT22;9817;50.80926400;5.16316200;2023-03-23T01:38:23;13.60;99.90
19363;DHT22;9817;50.80926400;5.16316200;2023-03-23T01:40:49;13.60;99.90
19363;DHT22;9817;50.80926400;5.16316200;2023-03-23T01:43:15;13.50;99.90
19363;DHT22;9817;50.80926400;5.16316200;2023-03-23T01:45:41;13.50;99.90
19363;DHT22;9817;50.80926400;5.16316200;2023-03-23T01:48:13;13.60;99.90
19363;DHT22;9817;50.80926400;5.16316200;2023-03-23T01:53:20;13.70;99.90
19363;DHT22;9817;50.80926400;5.16316200;2023-03-23T01:55:48;13.60;99.90
19363;DHT22;9817;50.80926400;5.16316200;2023-03-23T01:58:19;13.60;99.90
19363;DHT22;9817;50.80926400;5.16316200;2023-03-23T02:00:46;13.60;99.90
19363;DHT22;9817;50.80926400;5.16316200;2023-03-23T02:03:14;13.60;99.90
19363;DHT22;9817;50.80926400;5.16316200;2023-03-23T02:05:41;13.50;99.90
19363;DHT22;9817;50.80926400;5.16316200;2023-03-23T02:08:09;13.50;99.90
19363;DHT22;9817;50.80926400;5.16316200;2023-03-23T02:10:36;13.60;99.90
19363;DHT22;9817;50.80926400;5.16316200;2023-03-23T02:13:05;13.60;99.90
19363;DHT22;9817;50.80926400;5.16316200;2023-03-23T02:16:08;13.70;99.90
19363;DHT22;9817;50.80926400;5.16316200;2023-03-23T02:35:34;13.70;99.90
19363;DHT22;9817;50.80926400;5.16316200;2023-03-23T02:40:42;13.60;99.90
19363;DHT22;9817;50.80926400;5.16316200;2023-03-23T02:43:13;13.60;99.90
19363;DHT22;9817;50.80926400;5.16316200;2023-03-23T02:45:41;13.60;99.90
19363;DHT22;9817;50.80926400;5.16316200;2023-03-23T02:48:08;13.70;99.90
19363;DHT22;9817;50.80926400;5.16316200;2023-03-23T02:50:36;13.60;99.90
19363;DHT22;9817;50.80926400;5.16316200;2023-03-23T02:53:06;13.70;99.90
19363;DHT22;9817;50.80926400;5.16316200;2023-03-23T02:55:33;13.70;99.90
19363;DHT22;9817;50.80926400;5.16316200;2023-03-23T02:58:00;13.70;99.90
19363;DHT22;9817;50.80926400;5.16316200;2023-03-23T03:00:27;13.70;99.90
19363;DHT22;9817;50.80926400;5.16316200;2023-03-23T03:02:54;13.70;99.90
19363;DHT22;9817;50.80926400;5.16316200;2023-03-23T03:05:40;13.80;99.90
19363;DHT22;9817;50.80926400;5.16316200;2023-03-23T03:08:23;13.80;99.90
19363;DHT22;9817;50.80926400;5.16316200;2023-03-23T03:11:01;13.80;99.90
19363;DHT22;9817;50.80926400;5.16316200;2023-03-23T03:16:20;13.70;99.90
19363;DHT22;9817;50.80926400;5.16316200;2023-03-23T03:18:56;13.80;99.90
19363;DHT22;9817;50.80926400;5.16316200;2023-03-23T03:21:26;13.80;99.90
19363;DHT22;9817;50.80926400;5.16316200;2023-03-23T03:23:55;13.90;99.90
19363;DHT22;9817;50.80926400;5.16316200;2023-03-23T03:26:24;13.90;99.90
19363;DHT22;9817;50.80926400;5.16316200;2023-03-23T03:28:52;13.90;99.90
19363;DHT22;9817;50.80926400;5.16316200;2023-03-23T03:31:22;14.00;99.90
19363;DHT22;9817;50.80926400;5.16316200;2023-03-23T03:33:49;14.00;99.90
19363;DHT22;9817;50.80926400;5.16316200;2023-03-23T03:36:19;13.90;99.90
19363;DHT22;9817;50.80926400;5.16316200;2023-03-23T03:38:49;13.90;99.90
19363;DHT22;9817;50.80926400;5.16316200;2023-03-23T03:41:16;13.90;99.90
19363;DHT22;9817;50.80926400;5.16316200;2023-03-23T03:43:42;13.90;99.90
19363;DHT22;9817;50.80926400;5.16316200;2023-03-23T03:46:08;13.90;99.90
19363;DHT22;9817;50.80926400;5.16316200;2023-03-23T03:48:34;13.80;99.90
19363;DHT22;9817;50.80926400;5.16316200;2023-03-23T03:50:59;13.80;99.90
19363;DHT22;9817;50.80926400;5.16316200;2023-03-23T03:53:26;13.70;99.90
19363;DHT22;9817;50.80926400;5.16316200;2023-03-23T03:55:52;13.70;99.90
19363;DHT22;9817;50.80926400;5.16316200;2023-03-23T03:58:21;13.80;99.90
19363;DHT22;9817;50.80926400;5.16316200;2023-03-23T04:00:48;13.70;99.90
19363;DHT22;9817;50.80926400;5.16316200;2023-03-23T04:03:14;13.60;99.90
19363;DHT22;9817;50.80926400;5.16316200;2023-03-23T04:05:40;13.60;99.90
19363;DHT22;9817;50.80926400;5.16316200;2023-03-23T04:08:07;13.70;99.90
19363;DHT22;9817;50.80926400;5.16316200;2023-03-23T04:10:33;13.80;99.90
19363;DHT22;9817;50.80926400;5.16316200;2023-03-23T04:12:59;13.90;99.90
19363;DHT22;9817;50.80926400;5.16316200;2023-03-23T04:15:25;13.80;99.90
19363;DHT22;9817;50.80926400;5.16316200;2023-03-23T04:17:51;13.80;99.90
19363;DHT22;9817;50.80926400;5.16316200;2023-03-23T04:20:17;13.80;99.90
19363;DHT22;9817;50.80926400;5.16316200;2023-03-23T04:22:46;13.70;99.90
19363;DHT22;9817;50.80926400;5.16316200;2023-03-23T04:25:16;13.60;99.90
19363;DHT22;9817;50.80926400;5.16316200;2023-03-23T04:27:43;13.70;99.90
19363;DHT22;9817;50.80926400;5.16316200;2023-03-23T04:30:10;13.70;99.90
19363;DHT22;9817;50.80926400;5.16316200;2023-03-23T04:32:39;13.80;99.90
19363;DHT22;9817;50.80926400;5.16316200;2023-03-23T04:35:12;13.60;99.90
19363;DHT22;9817;50.80926400;5.16316200;2023-03-23T04:37:37;13.60;99.90
19363;DHT22;9817;50.80926400;5.16316200;2023-03-23T04:40:05;13.70;99.90
19363;DHT22;9817;50.80926400;5.16316200;2023-03-23T04:42:34;13.70;99.90
19363;DHT22;9817;50.80926400;5.16316200;2023-03-23T04:45:00;13.70;99.90
19363;DHT22;9817;50.80926400;5.16316200;2023-03-23T04:47:27;13.70;99.90
19363;DHT22;9817;50.80926400;5.16316200;2023-03-23T04:49:56;13.60;99.90
19363;DHT22;9817;50.80926400;5.16316200;2023-03-23T04:52:27;13.60;99.90
19363;DHT22;9817;50.80926400;5.16316200;2023-03-23T04:54:56;13.60;99.90
19363;DHT22;9817;50.80926400;5.16316200;2023-03-23T04:57:23;13.50;99.90
19363;DHT22;9817;50.80926400;5.16316200;2023-03-23T04:59:48;13.50;99.90
19363;DHT22;9817;50.80926400;5.16316200;2023-03-23T05:02:14;13.50;99.90
19363;DHT22;9817;50.80926400;5.16316200;2023-03-23T05:04:40;13.50;99.90
19363;DHT22;9817;50.80926400;5.16316200;2023-03-23T05:07:07;13.50;99.90
19363;DHT22;9817;50.80926400;5.16316200;2023-03-23T05:09:33;13.50;99.90
19363;DHT22;9817;50.80926400;5.16316200;2023-03-23T05:12:04;13.40;99.90
19363;DHT22;9817;50.80926400;5.16316200;2023-03-23T05:14:30;13.50;99.90
19363;DHT22;9817;50.80926400;5.16316200;2023-03-23T05:16:56;13.40;99.90
19363;DHT22;9817;50.80926400;5.16316200;2023-03-23T05:19:21;13.50;99.90
19363;DHT22;9817;50.80926400;5.16316200;2023-03-23T05:21:47;13.40;99.90
19363;DHT22;9817;50.80926400;5.16316200;2023-03-23T05:24:13;13.50;99.90
19363;DHT22;9817;50.80926400;5.16316200;2023-03-23T05:26:39;13.50;99.90
19363;DHT22;9817;50.80926400;5.16316200;2023-03-23T05:29:04;13.60;99.90
19363;DHT22;9817;50.80926400;5.16316200;2023-03-23T05:31:30;13.60;99.90
19363;DHT22;9817;50.80926400;5.16316200;2023-03-23T05:33:56;13.50;99.90
19363;DHT22;9817;50.80926400;5.16316200;2023-03-23T05:36:22;13.40;99.90
19363;DHT22;9817;50.80926400;5.16316200;2023-03-23T05:38:50;13.30;99.90
19363;DHT22;9817;50.80926400;5.16316200;2023-03-23T05:41:16;13.30;99.90
19363;DHT22;9817;50.80926400;5.16316200;2023-03-23T05:43:42;13.30;99.90
19363;DHT22;9817;50.80926400;5.16316200;2023-03-23T05:46:07;13.10;99.90
19363;DHT22;9817;50.80926400;5.16316200;2023-03-23T05:48:34;13.10;99.90
19363;DHT22;9817;50.80926400;5.16316200;2023-03-23T05:50:59;13.00;99.90
19363;DHT22;9817;50.80926400;5.16316200;2023-03-23T05:53:25;12.90;99.90
19363;DHT22;9817;50.80926400;5.16316200;2023-03-23T05:55:51;13.20;99.90
19363;DHT22;9817;50.80926400;5.16316200;2023-03-23T05:58:18;13.20;99.90
19363;DHT22;9817;50.80926400;5.16316200;2023-03-23T06:00:44;13.10;99.90
19363;DHT22;9817;50.80926400;5.16316200;2023-03-23T06:03:10;13.20;99.90
19363;DHT22;9817;50.80926400;5.16316200;2023-03-23T06:05:42;13.10;99.90
19363;DHT22;9817;50.80926400;5.16316200;2023-03-23T06:08:09;13.00;99.90
19363;DHT22;9817;50.80926400;5.16316200;2023-03-23T06:10:35;13.20;99.90
19363;DHT22;9817;50.80926400;5.16316200;2023-03-23T06:13:02;13.30;99.90
19363;DHT22;9817;50.80926400;5.16316200;2023-03-23T06:15:28;13.00;99.90
19363;DHT22;9817;50.80926400;5.16316200;2023-03-23T06:17:58;13.30;99.90
19363;DHT22;9817;50.80926400;5.16316200;2023-03-23T06:20:24;13.30;99.90
19363;DHT22;9817;50.80926400;5.16316200;2023-03-23T06:22:50;13.30;99.90
19363;DHT22;9817;50.80926400;5.16316200;2023-03-23T06:25:17;13.30;99.90
19363;DHT22;9817;50.80926400;5.16316200;2023-03-23T06:27:43;13.40;99.90
19363;DHT22;9817;50.80926400;5.16316200;2023-03-23T06:30:10;13.30;99.90
19363;DHT22;9817;50.80926400;5.16316200;2023-03-23T06:32:37;13.20;99.90
19363;DHT22;9817;50.80926400;5.16316200;2023-03-23T06:35:03;13.30;99.90
19363;DHT22;9817;50.80926400;5.16316200;2023-03-23T06:37:29;13.30;99.90
19363;DHT22;9817;50.80926400;5.16316200;2023-03-23T06:39:56;13.20;99.90
19363;DHT22;9817;50.80926400;5.16316200;2023-03-23T06:42:22;13.40;99.90
19363;DHT22;9817;50.80926400;5.16316200;2023-03-23T06:44:50;13.30;99.90
19363;DHT22;9817;50.80926400;5.16316200;2023-03-23T06:47:16;13.40;99.90
19363;DHT22;9817;50.80926400;5.16316200;2023-03-23T06:49:41;13.50;99.90
19363;DHT22;9817;50.80926400;5.16316200;2023-03-23T06:52:07;13.50;99.90
19363;DHT22;9817;50.80926400;5.16316200;2023-03-23T06:54:33;13.60;99.90
19363;DHT22;9817;50.80926400;5.16316200;2023-03-23T06:56:58;13.70;99.90
19363;DHT22;9817;50.80926400;5.16316200;2023-03-23T06:59:24;13.50;99.90
19363;DHT22;9817;50.80926400;5.16316200;2023-03-23T07:01:50;13.50;99.90
19363;DHT22;9817;50.80926400;5.16316200;2023-03-23T07:04:16;13.60;99.90
19363;DHT22;9817;50.80926400;5.16316200;2023-03-23T07:06:42;13.60;99.90
19363;DHT22;9817;50.80926400;5.16316200;2023-03-23T07:09:07;13.70;99.90
19363;DHT22;9817;50.80926400;5.16316200;2023-03-23T07:11:33;13.70;99.90
19363;DHT22;9817;50.80926400;5.16316200;2023-03-23T07:13:59;13.80;99.90
19363;DHT22;9817;50.80926400;5.16316200;2023-03-23T07:16:24;13.90;99.90
19363;DHT22;9817;50.80926400;5.16316200;2023-03-23T07:18:51;13.90;99.90
19363;DHT22;9817;50.80926400;5.16316200;2023-03-23T07:21:17;13.90;99.90
19363;DHT22;9817;50.80926400;5.16316200;2023-03-23T07:23:42;13.90;99.90
19363;DHT22;9817;50.80926400;5.16316200;2023-03-23T07:26:08;13.90;99.90
19363;DHT22;9817;50.80926400;5.16316200;2023-03-23T07:28:34;14.10;99.90
19363;DHT22;9817;50.80926400;5.16316200;2023-03-23T07:30:59;13.90;99.90
19363;DHT22;9817;50.80926400;5.16316200;2023-03-23T07:33:25;13.90;99.90
19363;DHT22;9817;50.80926400;5.16316200;2023-03-23T07:35:51;14.00;99.90
19363;DHT22;9817;50.80926400;5.16316200;2023-03-23T07:38:17;14.00;99.90
19363;DHT22;9817;50.80926400;5.16316200;2023-03-23T07:40:42;14.10;99.90
19363;DHT22;9817;50.80926400;5.16316200;2023-03-23T07:43:09;14.10;99.90
19363;DHT22;9817;50.80926400;5.16316200;2023-03-23T07:45:35;14.00;99.90
19363;DHT22;9817;50.80926400;5.16316200;2023-03-23T07:48:01;14.10;99.90
19363;DHT22;9817;50.80926400;5.16316200;2023-03-23T07:50:27;14.00;99.90
19363;DHT22;9817;50.80926400;5.16316200;2023-03-23T07:52:58;14.10;99.90
19363;DHT22;9817;50.80926400;5.16316200;2023-03-23T07:55:25;14.00;99.90
19363;DHT22;9817;50.80926400;5.16316200;2023-03-23T07:57:53;13.90;99.90
19363;DHT22;9817;50.80926400;5.16316200;2023-03-23T08:00:20;13.90;99.90
19363;DHT22;9817;50.80926400;5.16316200;2023-03-23T08:02:57;13.90;99.90
19363;DHT22;9817;50.80926400;5.16316200;2023-03-23T08:05:25;14.00;99.90
19363;DHT22;9817;50.80926400;5.16316200;2023-03-23T08:07:52;14.00;99.90
19363;DHT22;9817;50.80926400;5.16316200;2023-03-23T08:10:20;13.90;99.90
19363;DHT22;9817;50.80926400;5.16316200;2023-03-23T08:12:53;13.90;99.90
19363;DHT22;9817;50.80926400;5.16316200;2023-03-23T08:15:19;13.60;99.90
19363;DHT22;9817;50.80926400;5.16316200;2023-03-23T08:17:47;13.60;99.90
19363;DHT22;9817;50.80926400;5.16316200;2023-03-23T08:20:13;13.80;99.90
19363;DHT22;9817;50.80926400;5.16316200;2023-03-23T08:22:43;13.80;99.90
19363;DHT22;9817;50.80926400;5.16316200;2023-03-23T08:25:12;13.70;99.90
19363;DHT22;9817;50.80926400;5.16316200;2023-03-23T08:27:38;13.70;99.90
19363;DHT22;9817;50.80926400;5.16316200;2023-03-23T08:30:10;13.80;99.90
19363;DHT22;9817;50.80926400;5.16316200;2023-03-23T08:32:37;13.80;99.90
19363;DHT22;9817;50.80926400;5.16316200;2023-03-23T08:35:03;13.90;99.90
19363;DHT22;9817;50.80926400;5.16316200;2023-03-23T08:37:29;14.00;99.90
19363;DHT22;9817;50.80926400;5.16316200;2023-03-23T08:39:55;13.90;99.90
19363;DHT22;9817;50.80926400;5.16316200;2023-03-23T08:42:23;13.90;99.90
19363;DHT22;9817;50.80926400;5.16316200;2023-03-23T08:44:50;14.00;99.90
19363;DHT22;9817;50.80926400;5.16316200;2023-03-23T08:47:15;13.90;99.90
19363;DHT22;9817;50.80926400;5.16316200;2023-03-23T08:49:41;14.10;99.90
19363;DHT22;9817;50.80926400;5.16316200;2023-03-23T08:52:07;14.30;99.90
19363;DHT22;9817;50.80926400;5.16316200;2023-03-23T08:54:33;14.30;99.90
19363;DHT22;9817;50.80926400;5.16316200;2023-03-23T08:57:00;14.30;99.90
19363;DHT22;9817;50.80926400;5.16316200;2023-03-23T08:59:26;14.30;99.90
19363;DHT22;9817;50.80926400;5.16316200;2023-03-23T09:01:52;14.10;99.90
19363;DHT22;9817;50.80926400;5.16316200;2023-03-23T09:04:18;13.90;99.90
19363;DHT22;9817;50.80926400;5.16316200;2023-03-23T09:06:44;13.60;99.90
19363;DHT22;9817;50.80926400;5.16316200;2023-03-23T09:09:11;13.40;99.90
19363;DHT22;9817;50.80926400;5.16316200;2023-03-23T09:11:37;13.40;99.90
19363;DHT22;9817;50.80926400;5.16316200;2023-03-23T09:14:05;13.50;99.90
19363;DHT22;9817;50.80926400;5.16316200;2023-03-23T09:16:31;13.40;99.90
19363;DHT22;9817;50.80926400;5.16316200;2023-03-23T09:18:58;13.50;99.90
19363;DHT22;9817;50.80926400;5.16316200;2023-03-23T09:21:25;13.30;99.90
19363;DHT22;9817;50.80926400;5.16316200;2023-03-23T09:23:52;13.40;99.90
19363;DHT22;9817;50.80926400;5.16316200;2023-03-23T09:26:18;13.50;99.90
19363;DHT22;9817;50.80926400;5.16316200;2023-03-23T09:28:44;13.50;99.90
19363;DHT22;9817;50.80926400;5.16316200;2023-03-23T09:31:11;13.60;99.90
19363;DHT22;9817;50.80926400;5.16316200;2023-03-23T09:33:37;13.50;99.90
19363;DHT22;9817;50.80926400;5.16316200;2023-03-23T09:36:03;13.50;99.90
19363;DHT22;9817;50.80926400;5.16316200;2023-03-23T09:38:31;13.30;99.90
19363;DHT22;9817;50.80926400;5.16316200;2023-03-23T09:41:24;13.30;99.90
19363;DHT22;9817;50.80926400;5.16316200;2023-03-23T09:44:07;13.30;99.90
19363;DHT22;9817;50.80926400;5.16316200;2023-03-23T09:46:58;13.20;99.90
19363;DHT22;9817;50.80926400;5.16316200;2023-03-23T09:49:53;13.10;99.90
19363;DHT22;9817;50.80926400;5.16316200;2023-03-23T09:52:20;13.30;99.90
19363;DHT22;9817;50.80926400;5.16316200;2023-03-23T09:54:52;13.70;99.90
19363;DHT22;9817;50.80926400;5.16316200;2023-03-23T10:00:08;14.50;99.90
19363;DHT22;9817;50.80926400;5.16316200;2023-03-23T10:03:05;14.70;99.90
19363;DHT22;9817;50.80926400;5.16316200;2023-03-23T10:05:40;15.10;99.90
19363;DHT22;9817;50.80926400;5.16316200;2023-03-23T10:08:12;15.00;99.90
19363;DHT22;9817;50.80926400;5.16316200;2023-03-23T10:10:50;14.70;99.90
19363;DHT22;9817;50.80926400;5.16316200;2023-03-23T10:15:50;14.20;99.90
19363;DHT22;9817;50.80926400;5.16316200;2023-03-23T10:20:58;14.10;99.90
19363;DHT22;9817;50.80926400;5.16316200;2023-03-23T10:23:41;14.00;99.90
19363;DHT22;9817;50.80926400;5.16316200;2023-03-23T10:28:44;13.90;99.90
19363;DHT22;9817;50.80926400;5.16316200;2023-03-23T10:31:18;13.70;99.90
19363;DHT22;9817;50.80926400;5.16316200;2023-03-23T10:33:47;13.50;99.90
19363;DHT22;9817;50.80926400;5.16316200;2023-03-23T10:36:34;13.30;99.90
19363;DHT22;9817;50.80926400;5.16316200;2023-03-23T10:39:16;13.20;99.90
19363;DHT22;9817;50.80926400;5.16316200;2023-03-23T10:41:43;13.20;99.90
19363;DHT22;9817;50.80926400;5.16316200;2023-03-23T10:44:19;13.20;99.90
19363;DHT22;9817;50.80926400;5.16316200;2023-03-23T10:46:50;13.30;99.90
19363;DHT22;9817;50.80926400;5.16316200;2023-03-23T10:49:33;13.20;99.90
19363;DHT22;9817;50.80926400;5.16316200;2023-03-23T10:52:05;13.30;99.90
19363;DHT22;9817;50.80926400;5.16316200;2023-03-23T10:54:37;13.20;99.90
19363;DHT22;9817;50.80926400;5.16316200;2023-03-23T10:57:27;13.20;99.90
19363;DHT22;9817;50.80926400;5.16316200;2023-03-23T11:00:06;13.20;99.90
19363;DHT22;9817;50.80926400;5.16316200;2023-03-23T11:02:43;13.00;99.90
19363;DHT22;9817;50.80926400;5.16316200;2023-03-23T11:05:20;13.00;99.90
19363;DHT22;9817;50.80926400;5.16316200;2023-03-23T11:07:55;12.90;99.90
19363;DHT22;9817;50.80926400;5.16316200;2023-03-23T11:10:35;13.30;99.90
19363;DHT22;9817;50.80926400;5.16316200;2023-03-23T11:13:02;13.30;99.90
19363;DHT22;9817;50.80926400;5.16316200;2023-03-23T11:15:36;13.20;99.90
19363;DHT22;9817;50.80926400;5.16316200;2023-03-23T11:18:27;13.20;99.90
19363;DHT22;9817;50.80926400;5.16316200;2023-03-23T11:20:59;13.30;99.90
19363;DHT22;9817;50.80926400;5.16316200;2023-03-23T11:23:29;13.30;99.90
19363;DHT22;9817;50.80926400;5.16316200;2023-03-23T11:29:10;13.40;99.90
19363;DHT22;9817;50.80926400;5.16316200;2023-03-23T11:31:40;13.50;99.90
19363;DHT22;9817;50.80926400;5.16316200;2023-03-23T11:34:14;14.00;99.90
19363;DHT22;9817;50.80926400;5.16316200;2023-03-23T11:36:55;14.30;99.90
19363;DHT22;9817;50.80926400;5.16316200;2023-03-23T11:39:29;14.60;99.90
19363;DHT22;9817;50.80926400;5.16316200;2023-03-23T11:42:01;14.80;99.90
19363;DHT22;9817;50.80926400;5.16316200;2023-03-23T11:44:41;15.10;99.90
19363;DHT22;9817;50.80926400;5.16316200;2023-03-23T11:47:30;15.30;99.90
19363;DHT22;9817;50.80926400;5.16316200;2023-03-23T11:50:24;15.40;99.90
19363;DHT22;9817;50.80926400;5.16316200;2023-03-23T11:58:22;15.50;99.90
19363;DHT22;9817;50.80926400;5.16316200;2023-03-23T12:00:56;15.80;99.90
19363;DHT22;9817;50.80926400;5.16316200;2023-03-23T12:03:51;16.10;99.90
19363;DHT22;9817;50.80926400;5.16316200;2023-03-23T12:08:59;15.90;99.90
19363;DHT22;9817;50.80926400;5.16316200;2023-03-23T12:14:24;15.90;99.90
19363;DHT22;9817;50.80926400;5.16316200;2023-03-23T12:17:20;15.80;99.90
19363;DHT22;9817;50.80926400;5.16316200;2023-03-23T12:30:35;15.60;99.90
19363;DHT22;9817;50.80926400;5.16316200;2023-03-23T12:41:18;16.50;99.90
19363;DHT22;9817;50.80926400;5.16316200;2023-03-23T12:49:50;16.30;99.90
19363;DHT22;9817;50.80926400;5.16316200;2023-03-23T12:52:28;16.30;99.90
19363;DHT22;9817;50.80926400;5.16316200;2023-03-23T12:55:03;16.10;99.90
19363;DHT22;9817;50.80926400;5.16316200;2023-03-23T12:58:12;16.10;99.90
19363;DHT22;9817;50.80926400;5.16316200;2023-03-23T13:03:57;16.00;99.90
19363;DHT22;9817;50.80926400;5.16316200;2023-03-23T13:11:36;15.90;99.90
19363;DHT22;9817;50.80926400;5.16316200;2023-03-23T13:23:08;15.40;99.90
19363;DHT22;9817;50.80926400;5.16316200;2023-03-23T13:25:40;15.40;99.90
19363;DHT22;9817;50.80926400;5.16316200;2023-03-23T13:28:31;15.20;99.90
19363;DHT22;9817;50.80926400;5.16316200;2023-03-23T13:33:30;15.20;99.90
19363;DHT22;9817;50.80926400;5.16316200;2023-03-23T13:35:56;15.30;99.90
19363;DHT22;9817;50.80926400;5.16316200;2023-03-23T13:38:30;15.40;99.90
19363;DHT22;9817;50.80926400;5.16316200;2023-03-23T13:40:56;15.20;99.90
19363;DHT22;9817;50.80926400;5.16316200;2023-03-23T13:43:31;15.10;99.90
19363;DHT22;9817;50.80926400;5.16316200;2023-03-23T13:46:12;15.20;99.90
19363;DHT22;9817;50.80926400;5.16316200;2023-03-23T13:48:50;15.40;99.90
19363;DHT22;9817;50.80926400;5.16316200;2023-03-23T13:54:31;16.00;99.90
19363;DHT22;9817;50.80926400;5.16316200;2023-03-23T13:57:19;16.20;99.90
19363;DHT22;9817;50.80926400;5.16316200;2023-03-23T13:59:48;16.30;99.90
19363;DHT22;9817;50.80926400;5.16316200;2023-03-23T14:07:52;16.20;99.90
19363;DHT22;9817;50.80926400;5.16316200;2023-03-23T14:10:19;15.90;99.90
19363;DHT22;9817;50.80926400;5.16316200;2023-03-23T14:12:45;15.90;99.90
19363;DHT22;9817;50.80926400;5.16316200;2023-03-23T14:15:13;16.00;99.90
19363;DHT22;9817;50.80926400;5.16316200;2023-03-23T14:17:44;16.10;99.90
19363;DHT22;9817;50.80926400;5.16316200;2023-03-23T14:20:23;16.10;99.90
19363;DHT22;9817;50.80926400;5.16316200;2023-03-23T14:22:54;15.90;99.90
19363;DHT22;9817;50.80926400;5.16316200;2023-03-23T14:25:21;16.10;99.90
19363;DHT22;9817;50.80926400;5.16316200;2023-03-23T14:27:51;16.10;99.90
19363;DHT22;9817;50.80926400;5.16316200;2023-03-23T14:30:22;16.00;99.90
19363;DHT22;9817;50.80926400;5.16316200;2023-03-23T14:32:53;16.20;99.90
19363;DHT22;9817;50.80926400;5.16316200;2023-03-23T14:37:55;16.10;99.90
19363;DHT22;9817;50.80926400;5.16316200;2023-03-23T14:40:21;16.20;99.90
19363;DHT22;9817;50.80926400;5.16316200;2023-03-23T14:42:47;16.40;99.90
19363;DHT22;9817;50.80926400;5.16316200;2023-03-23T14:45:19;16.60;99.90
19363;DHT22;9817;50.80926400;5.16316200;2023-03-23T14:47:54;16.60;99.90
19363;DHT22;9817;50.80926400;5.16316200;2023-03-23T14:52:49;16.50;99.90
19363;DHT22;9817;50.80926400;5.16316200;2023-03-23T14:55:19;16.50;99.90
19363;DHT22;9817;50.80926400;5.16316200;2023-03-23T14:57:47;16.60;99.90
19363;DHT22;9817;50.80926400;5.16316200;2023-03-23T15:00:18;16.60;99.90
19363;DHT22;9817;50.80926400;5.16316200;2023-03-23T15:02:49;16.60;99.90
19363;DHT22;9817;50.80926400;5.16316200;2023-03-23T15:05:32;16.50;99.90
19363;DHT22;9817;50.80926400;5.16316200;2023-03-23T15:08:24;16.60;99.90
19363;DHT22;9817;50.80926400;5.16316200;2023-03-23T15:13:52;16.50;99.90
19363;DHT22;9817;50.80926400;5.16316200;2023-03-23T15:16:28;16.40;99.90
19363;DHT22;9817;50.80926400;5.16316200;2023-03-23T15:19:03;16.50;99.90
19363;DHT22;9817;50.80926400;5.16316200;2023-03-23T15:21:35;16.20;99.90
19363;DHT22;9817;50.80926400;5.16316200;2023-03-23T15:24:17;15.90;99.90
19363;DHT22;9817;50.80926400;5.16316200;2023-03-23T15:26:44;15.90;99.90
19363;DHT22;9817;50.80926400;5.16316200;2023-03-23T15:31:43;15.60;99.90
19363;DHT22;9817;50.80926400;5.16316200;2023-03-23T15:34:15;15.80;99.90
19363;DHT22;9817;50.80926400;5.16316200;2023-03-23T15:36:42;16.00;99.90
19363;DHT22;9817;50.80926400;5.16316200;2023-03-23T15:39:13;16.20;99.90
19363;DHT22;9817;50.80926400;5.16316200;2023-03-23T15:41:49;16.30;99.90
19363;DHT22;9817;50.80926400;5.16316200;2023-03-23T15:46:50;16.30;99.90